createdAt,value
2022-10-06T00:01:09.839Z,3.85
2022-10-06T00:03:38.397Z,3.05
2022-10-06T00:06:08.332Z,3.92
2022-10-06T00:08:39.732Z,3.15
2022-10-06T00:11:09.314Z,3.50
2022-10-06T00:13:37.677Z,3.50
2022-10-06T00:16:11.263Z,3.35
2022-10-06T00:18:39.809Z,3.00
2022-10-06T00:21:07.778Z,3.03
2022-10-06T00:23:37.315Z,3.28
2022-10-06T00:26:05.383Z,2.95
2022-10-06T00:28:34.046Z,2.88
2022-10-06T00:31:03.731Z,2.95
2022-10-06T00:33:31.602Z,3.30
2022-10-06T00:36:00.956Z,2.85
2022-10-06T00:38:29.786Z,2.90
2022-10-06T00:40:59.234Z,3.40
2022-10-06T00:43:45.150Z,3.20
2022-10-06T00:46:17.863Z,2.95
2022-10-06T00:48:51.387Z,3.40
2022-10-06T00:51:22.101Z,3.00
2022-10-06T00:53:50.460Z,3.42
2022-10-06T00:56:19.954Z,3.38
2022-10-06T00:58:47.717Z,3.40
2022-10-06T01:01:16.061Z,3.00
2022-10-06T01:03:48.481Z,2.85
2022-10-06T01:06:16.319Z,3.05
2022-10-06T01:08:44.203Z,3.20
2022-10-06T01:11:14.344Z,3.45
2022-10-06T01:13:46.610Z,3.97
2022-10-06T01:16:19.768Z,3.67
2022-10-06T01:18:49.508Z,3.60
2022-10-06T01:21:24.832Z,3.65
2022-10-06T01:23:55.499Z,4.03
2022-10-06T01:26:25.539Z,3.42
2022-10-06T01:28:53.822Z,4.00
2022-10-06T01:31:22.461Z,4.00
2022-10-06T01:33:52.893Z,3.80
2022-10-06T01:36:21.582Z,4.05
2022-10-06T01:38:52.152Z,4.30
2022-10-06T01:41:22.494Z,4.63
2022-10-06T01:43:50.896Z,3.67
2022-10-06T01:46:18.984Z,4.28
2022-10-06T01:48:46.902Z,4.05
2022-10-06T01:51:17.324Z,4.15
2022-10-06T01:53:45.763Z,4.35
2022-10-06T01:56:14.536Z,4.30
2022-10-06T01:58:44.758Z,3.63
2022-10-06T02:01:13.573Z,4.45
2022-10-06T02:03:41.997Z,4.25
2022-10-06T02:06:10.644Z,3.78
2022-10-06T02:08:39.310Z,3.55
2022-10-06T02:11:10.133Z,3.72
2022-10-06T02:13:42.494Z,4.20
2022-10-06T02:16:13.945Z,3.53
2022-10-06T02:18:43.278Z,3.83
2022-10-06T02:21:16.180Z,4.03
2022-10-06T02:23:44.137Z,3.70
2022-10-06T02:26:12.605Z,3.72
2022-10-06T02:28:40.643Z,4.13
2022-10-06T02:31:12.795Z,3.72
2022-10-06T02:33:41.855Z,2.80
2022-10-06T02:36:13.205Z,2.22
2022-10-06T02:38:41.636Z,1.63
2022-10-06T02:41:11.510Z,1.58
2022-10-06T02:43:40.181Z,1.40
2022-10-06T02:46:12.211Z,1.20
2022-10-06T02:48:44.505Z,0.88
2022-10-06T02:51:15.388Z,1.42
2022-10-06T02:53:45.097Z,1.13
2022-10-06T02:56:18.255Z,1.33
2022-10-06T02:58:48.791Z,0.98
2022-10-06T03:01:26.493Z,1.10
2022-10-06T03:03:58.036Z,1.00
2022-10-06T03:06:27.445Z,1.20
2022-10-06T03:09:03.301Z,0.90
2022-10-06T03:11:34.240Z,1.30
2022-10-06T03:14:02.635Z,0.95
2022-10-06T03:16:34.177Z,0.88
2022-10-06T03:19:06.374Z,0.65
2022-10-06T03:21:36.324Z,1.05
2022-10-06T03:24:04.806Z,0.88
2022-10-06T03:26:34.758Z,0.63
2022-10-06T03:29:07.920Z,0.93
2022-10-06T03:31:40.920Z,0.60
2022-10-06T03:34:11.302Z,0.60
2022-10-06T03:36:40.469Z,0.70
2022-10-06T03:39:08.906Z,0.90
2022-10-06T03:41:39.189Z,0.80
2022-10-06T03:44:09.020Z,0.85
2022-10-06T03:46:39.618Z,0.82
2022-10-06T03:49:10.025Z,0.73
2022-10-06T03:51:41.054Z,0.80
2022-10-06T03:54:31.662Z,0.85
2022-10-06T03:57:00.164Z,0.80
2022-10-06T03:59:31.259Z,0.90
2022-10-06T04:01:59.813Z,1.00
2022-10-06T04:04:33.041Z,0.70
2022-10-06T04:07:04.677Z,0.65
2022-10-06T04:09:33.182Z,1.10
2022-10-06T04:12:02.254Z,0.60
2022-10-06T04:14:32.407Z,0.70
2022-10-06T04:17:01.611Z,0.85
2022-10-06T04:19:37.125Z,0.80
2022-10-06T04:22:05.380Z,0.90
2022-10-06T04:24:34.463Z,0.70
2022-10-06T04:27:16.635Z,0.80
2022-10-06T04:29:49.540Z,0.70
2022-10-06T04:32:17.506Z,1.00
2022-10-06T04:34:46.842Z,1.05
2022-10-06T04:37:15.494Z,0.57
2022-10-06T04:39:45.023Z,0.68
2022-10-06T04:42:13.553Z,0.93
2022-10-06T04:44:41.535Z,0.80
2022-10-06T04:47:09.349Z,0.60
2022-10-06T04:49:37.265Z,0.63
2022-10-06T04:52:07.195Z,0.70
2022-10-06T04:54:37.633Z,0.93
2022-10-06T04:57:07.160Z,0.75
2022-10-06T04:59:52.616Z,0.80
2022-10-06T05:02:20.825Z,0.75
2022-10-06T05:04:53.055Z,1.02
2022-10-06T05:07:24.744Z,0.80
2022-10-06T05:09:53.786Z,0.60
2022-10-06T05:12:21.823Z,1.17
2022-10-06T05:14:49.803Z,1.52
2022-10-06T05:17:18.588Z,1.67
2022-10-06T05:19:47.477Z,1.20
2022-10-06T05:22:15.386Z,0.82
2022-10-06T05:24:44.671Z,1.63
2022-10-06T05:27:12.748Z,1.20
2022-10-06T05:29:40.622Z,0.93
2022-10-06T05:32:10.105Z,0.85
2022-10-06T05:34:38.812Z,1.17
2022-10-06T05:37:07.747Z,0.90
2022-10-06T05:39:36.953Z,0.88
2022-10-06T05:42:06.581Z,1.60
2022-10-06T05:44:34.345Z,0.90
2022-10-06T05:47:07.522Z,0.95
2022-10-06T05:49:36.390Z,1.10
2022-10-06T05:52:05.671Z,1.45
2022-10-06T05:54:36.412Z,1.42
2022-10-06T05:57:04.301Z,1.35
2022-10-06T05:59:35.605Z,1.10
2022-10-06T06:02:05.342Z,1.40
2022-10-06T06:04:38.464Z,2.55
2022-10-06T06:07:06.931Z,2.58
2022-10-06T06:09:35.496Z,1.60
2022-10-06T06:12:05.328Z,1.25
2022-10-06T06:15:21.338Z,1.33
2022-10-06T06:17:56.775Z,1.10
2022-10-06T06:20:25.982Z,1.13
2022-10-06T06:22:54.399Z,0.93
2022-10-06T06:25:26.133Z,1.10
2022-10-06T06:27:56.412Z,1.55
2022-10-06T06:30:25.965Z,1.40
2022-10-06T06:33:00.137Z,1.63
2022-10-06T06:35:28.273Z,1.50
2022-10-06T06:37:59.412Z,1.08
2022-10-06T06:40:28.454Z,1.25
2022-10-06T06:42:56.505Z,1.20
2022-10-06T06:45:51.867Z,1.45
2022-10-06T06:48:35.899Z,1.10
2022-10-06T06:51:04.782Z,1.08
2022-10-06T06:53:32.949Z,1.45
2022-10-06T06:56:02.645Z,1.20
2022-10-06T06:58:33.598Z,1.20
2022-10-06T07:01:12.135Z,1.60
2022-10-06T07:03:58.354Z,1.23
2022-10-06T07:06:32.081Z,1.20
2022-10-06T07:09:03.642Z,1.50
2022-10-06T07:11:33.755Z,1.30
2022-10-06T07:14:05.673Z,1.42
2022-10-06T07:16:54.109Z,1.70
2022-10-06T07:19:40.553Z,1.42
2022-10-06T07:22:35.084Z,1.40
2022-10-06T07:25:12.573Z,1.38
2022-10-06T07:27:45.954Z,1.20
2022-10-06T07:30:19.459Z,1.40
2022-10-06T07:32:52.847Z,1.58
2022-10-06T07:35:23.793Z,1.50
2022-10-06T07:37:53.192Z,1.40
2022-10-06T07:40:23.379Z,1.30
2022-10-06T07:42:52.794Z,1.70
2022-10-06T07:45:39.496Z,1.50
2022-10-06T07:48:15.359Z,1.65
2022-10-06T07:50:45.815Z,1.52
2022-10-06T07:53:13.871Z,1.48
2022-10-06T07:55:47.987Z,1.77
2022-10-06T07:58:23.878Z,1.42
2022-10-06T08:00:52.900Z,1.70
2022-10-06T08:03:22.827Z,2.13
2022-10-06T08:05:58.366Z,1.77
2022-10-06T08:08:26.476Z,1.75
2022-10-06T08:10:55.692Z,2.03
2022-10-06T08:13:23.535Z,1.60
2022-10-06T08:15:52.327Z,1.85
2022-10-06T08:18:44.356Z,1.65
2022-10-06T08:21:11.520Z,1.55
2022-10-06T08:23:42.362Z,1.77
2022-10-06T08:26:10.938Z,1.77
2022-10-06T08:28:39.497Z,1.58
2022-10-06T08:31:11.735Z,1.80
2022-10-06T08:33:42.320Z,1.02
2022-10-06T08:36:12.275Z,1.83
2022-10-06T08:38:40.172Z,1.65
2022-10-06T08:41:23.703Z,2.00
2022-10-06T08:43:59.359Z,1.63
2022-10-06T08:46:35.945Z,1.80
2022-10-06T08:49:06.692Z,1.83
2022-10-06T08:51:50.884Z,1.25
2022-10-06T08:54:24.582Z,1.60
2022-10-06T08:57:00.425Z,1.92
2022-10-06T08:59:28.254Z,1.33
2022-10-06T09:01:56.277Z,2.22
2022-10-06T09:04:30.253Z,3.58
2022-10-06T09:07:06.599Z,1.70
2022-10-06T09:09:51.790Z,1.55
2022-10-06T09:12:28.167Z,2.03
2022-10-06T09:15:06.310Z,1.40
2022-10-06T09:17:38.703Z,1.73
2022-10-06T09:20:18.442Z,1.60
2022-10-06T09:22:48.521Z,2.03
2022-10-06T09:25:18.525Z,1.90
2022-10-06T09:27:51.732Z,1.48
2022-10-06T09:30:20.774Z,1.65
2022-10-06T09:32:53.636Z,1.30
2022-10-06T09:35:25.041Z,1.50
2022-10-06T09:37:55.296Z,1.48
2022-10-06T09:40:36.371Z,1.70
2022-10-06T09:43:05.578Z,1.58
2022-10-06T09:45:33.656Z,1.73
2022-10-06T09:48:13.544Z,1.50
2022-10-06T09:50:42.790Z,1.42
2022-10-06T09:53:17.092Z,1.58
2022-10-06T09:55:51.351Z,1.60
2022-10-06T09:58:26.456Z,1.80
2022-10-06T10:00:57.162Z,1.60
2022-10-06T10:03:27.092Z,1.67
2022-10-06T10:05:56.714Z,1.65
2022-10-06T10:08:27.279Z,1.45
2022-10-06T10:11:32.436Z,1.38
2022-10-06T10:14:00.956Z,1.35
2022-10-06T10:16:34.735Z,1.80
2022-10-06T10:19:04.127Z,1.40
2022-10-06T10:21:37.436Z,1.52
2022-10-06T10:24:16.887Z,1.70
2022-10-06T10:26:54.573Z,1.38
2022-10-06T10:29:59.328Z,1.40
2022-10-06T10:32:50.769Z,1.80
2022-10-06T10:35:25.703Z,1.63
2022-10-06T10:38:01.713Z,1.60
2022-10-06T10:40:37.727Z,1.45
2022-10-06T10:43:20.150Z,2.03
2022-10-06T10:45:52.162Z,1.83
2022-10-06T10:48:24.086Z,1.58
2022-10-06T10:50:59.094Z,1.20
2022-10-06T10:53:40.232Z,1.40
2022-10-06T10:56:13.376Z,1.50
2022-10-06T10:58:43.673Z,1.40
2022-10-06T11:01:26.235Z,1.40
2022-10-06T11:03:57.808Z,1.40
2022-10-06T11:06:49.018Z,2.03
2022-10-06T11:09:23.572Z,1.20
2022-10-06T11:12:04.420Z,1.02
2022-10-06T11:14:49.608Z,1.52
2022-10-06T11:17:30.990Z,1.33
2022-10-06T11:20:05.815Z,1.38
2022-10-06T11:22:42.590Z,1.52
2022-10-06T11:25:22.917Z,1.45
2022-10-06T11:28:00.002Z,1.40
2022-10-06T11:30:29.753Z,1.30
2022-10-06T11:33:08.470Z,1.50
2022-10-06T11:35:38.397Z,1.52
2022-10-06T11:38:16.918Z,1.30
2022-10-06T11:41:04.177Z,1.98
2022-10-06T11:43:44.627Z,2.05
2022-10-06T11:46:31.098Z,1.60
2022-10-06T11:49:39.415Z,1.27
2022-10-06T11:52:45.687Z,1.83
2022-10-06T11:55:17.689Z,1.15
2022-10-06T11:58:29.857Z,1.88
2022-10-06T12:00:57.387Z,1.25
2022-10-06T12:04:05.894Z,1.30
2022-10-06T12:07:00.727Z,1.70
2022-10-06T12:09:51.692Z,1.55
2022-10-06T12:12:43.147Z,0.88
2022-10-06T12:18:23.928Z,1.25
2022-10-06T12:21:06.202Z,1.30
2022-10-06T12:23:55.423Z,1.17
2022-10-06T12:26:34.291Z,1.10
2022-10-06T12:29:19.684Z,1.17
2022-10-06T12:31:59.776Z,1.17
2022-10-06T12:34:59.729Z,1.83
2022-10-06T12:37:48.965Z,1.55
2022-10-06T12:40:48.805Z,1.15
2022-10-06T12:43:58.771Z,1.40
2022-10-06T12:46:50.625Z,1.55
2022-10-06T12:49:41.399Z,1.10
2022-10-06T12:52:38.123Z,1.40
2022-10-06T12:55:22.053Z,1.20
2022-10-06T12:57:53.324Z,1.10
2022-10-06T13:00:31.540Z,1.30
2022-10-06T13:03:03.225Z,1.17
2022-10-06T13:05:31.561Z,1.23
2022-10-06T13:08:01.438Z,1.05
2022-10-06T13:10:30.366Z,1.10
2022-10-06T13:12:59.040Z,1.27
2022-10-06T13:18:11.422Z,1.42
2022-10-06T13:20:42.619Z,1.50
2022-10-06T13:23:25.295Z,1.50
2022-10-06T13:25:59.045Z,0.98
2022-10-06T13:28:30.063Z,0.85
2022-10-06T13:33:40.266Z,1.20
2022-10-06T13:36:09.907Z,1.08
2022-10-06T13:38:39.503Z,1.08
2022-10-06T13:41:17.795Z,1.00
2022-10-06T13:43:50.978Z,1.10
2022-10-06T13:46:21.590Z,1.02
2022-10-06T13:48:54.782Z,0.98
2022-10-06T13:51:25.542Z,1.08
2022-10-06T13:53:54.140Z,0.98
2022-10-06T13:58:57.076Z,0.95
2022-10-06T14:01:32.300Z,0.73
2022-10-06T14:04:15.709Z,0.82
2022-10-06T14:06:51.504Z,0.90
2022-10-06T14:09:24.000Z,1.20
2022-10-06T14:11:52.695Z,0.82
2022-10-06T14:14:21.100Z,0.77
2022-10-06T14:16:51.563Z,1.10
2022-10-06T14:19:38.756Z,0.77
2022-10-06T14:22:27.667Z,1.02
2022-10-06T14:24:55.534Z,1.17
2022-10-06T14:27:23.438Z,1.02
2022-10-06T14:29:51.173Z,0.80
2022-10-06T14:32:20.287Z,0.98
2022-10-06T14:34:49.507Z,1.00
2022-10-06T14:37:17.286Z,1.00
2022-10-06T14:39:46.959Z,0.90
2022-10-06T14:42:15.532Z,1.08
2022-10-06T14:44:43.338Z,0.98
2022-10-06T14:47:11.772Z,1.52
2022-10-06T14:49:40.797Z,0.98
2022-10-06T14:52:11.216Z,0.90
2022-10-06T14:54:39.177Z,0.80
2022-10-06T14:57:08.457Z,0.88
2022-10-06T14:59:37.067Z,0.95
2022-10-06T15:02:04.914Z,1.08
2022-10-06T15:04:32.925Z,1.00
2022-10-06T15:07:17.975Z,1.20
2022-10-06T15:09:47.166Z,1.10
2022-10-06T15:12:14.921Z,1.10
2022-10-06T15:14:43.513Z,1.30
2022-10-06T15:17:11.356Z,1.17
2022-10-06T15:19:40.354Z,0.90
2022-10-06T15:22:09.958Z,0.95
2022-10-06T15:24:37.765Z,0.88
2022-10-06T15:27:32.754Z,0.88
2022-10-06T15:30:00.939Z,1.10
2022-10-06T15:32:28.835Z,1.08
2022-10-06T15:34:56.565Z,1.33
2022-10-06T15:37:24.372Z,0.73
2022-10-06T15:39:52.372Z,0.80
2022-10-06T15:42:24.221Z,0.82
2022-10-06T15:44:52.187Z,0.95
2022-10-06T15:47:20.005Z,0.80
2022-10-06T15:49:49.220Z,1.30
2022-10-06T15:52:17.483Z,0.80
2022-10-06T15:54:46.412Z,0.93
2022-10-06T15:57:20.349Z,0.73
2022-10-06T15:59:50.523Z,0.93
2022-10-06T16:02:20.004Z,0.90
2022-10-06T16:05:16.208Z,1.05
2022-10-06T16:07:44.480Z,0.88
2022-10-06T16:10:13.433Z,1.00
2022-10-06T16:12:41.257Z,1.20
2022-10-06T16:15:11.446Z,1.30
2022-10-06T16:17:39.230Z,1.20
2022-10-06T16:20:09.196Z,1.10
2022-10-06T16:22:37.411Z,1.55
2022-10-06T16:25:05.993Z,3.08
2022-10-06T16:27:35.275Z,3.75
2022-10-06T16:30:03.226Z,2.47
2022-10-06T16:32:32.419Z,2.38
2022-10-06T16:35:00.215Z,1.90
2022-10-06T16:37:28.202Z,1.75
2022-10-06T16:39:56.086Z,3.00
2022-10-06T16:42:24.517Z,2.00
2022-10-06T16:44:52.450Z,1.65
2022-10-06T16:47:20.343Z,1.30
2022-10-06T16:49:49.512Z,1.70
2022-10-06T16:52:17.256Z,1.95
2022-10-06T16:54:45.069Z,1.65
2022-10-06T16:57:12.910Z,1.10
2022-10-06T16:59:45.754Z,1.63
2022-10-06T17:02:14.557Z,1.60
2022-10-06T17:04:42.733Z,1.85
2022-10-06T17:07:11.910Z,1.70
2022-10-06T17:09:51.148Z,1.88
2022-10-06T17:12:27.632Z,1.77
2022-10-06T17:14:55.450Z,2.08
2022-10-06T17:17:23.924Z,1.60
2022-10-06T17:19:52.989Z,1.77
2022-10-06T17:22:22.489Z,1.70
2022-10-06T17:24:53.236Z,1.67
2022-10-06T17:27:22.514Z,1.60
2022-10-06T17:29:50.311Z,1.67
2022-10-06T17:32:18.259Z,1.70
2022-10-06T17:34:46.293Z,1.48
2022-10-06T17:37:14.022Z,1.95
2022-10-06T17:39:58.006Z,1.52
2022-10-06T17:42:27.054Z,1.38
2022-10-06T17:44:54.947Z,1.98
2022-10-06T17:47:23.160Z,2.00
2022-10-06T17:49:51.153Z,2.03
2022-10-06T17:52:23.323Z,2.80
2022-10-06T17:54:54.387Z,2.78
2022-10-06T17:57:22.506Z,2.83
2022-10-06T17:59:50.732Z,2.67
2022-10-06T18:02:18.611Z,2.50
2022-10-06T18:04:47.426Z,2.40
2022-10-06T18:07:15.442Z,1.90
2022-10-06T18:10:04.267Z,2.80
2022-10-06T18:12:36.168Z,1.95
2022-10-06T18:15:04.462Z,2.40
2022-10-06T18:17:32.390Z,2.25
2022-10-06T18:20:00.367Z,9.38
2022-10-06T18:22:28.341Z,6.22
2022-10-06T18:24:59.193Z,3.00
2022-10-06T18:27:27.204Z,2.80
2022-10-06T18:29:56.679Z,2.10
2022-10-06T18:34:06.865Z,2.28
2022-10-06T18:38:01.141Z,2.20
2022-10-06T18:40:29.198Z,2.30
2022-10-06T18:42:57.176Z,2.70
2022-10-06T18:45:44.000Z,2.63
2022-10-06T18:48:29.404Z,5.45
2022-10-06T18:51:01.426Z,3.05
2022-10-06T18:53:31.014Z,2.00
2022-10-06T18:55:58.877Z,2.28
2022-10-06T18:58:26.605Z,1.67
2022-10-06T19:00:55.889Z,2.05
2022-10-06T19:03:24.016Z,3.22
2022-10-06T19:05:53.362Z,4.00
2022-10-06T19:08:21.269Z,3.63
2022-10-06T19:11:03.112Z,2.50
2022-10-06T19:13:31.055Z,1.98
2022-10-06T19:16:01.856Z,2.03
2022-10-06T19:18:36.437Z,2.40
2022-10-06T19:21:09.456Z,2.42
2022-10-06T19:23:39.970Z,2.22
2022-10-06T19:26:11.166Z,2.70
2022-10-06T19:28:39.977Z,2.33
2022-10-06T19:31:11.282Z,2.72
2022-10-06T19:33:40.323Z,2.85
2022-10-06T19:36:10.733Z,2.80
2022-10-06T19:38:40.298Z,3.20
2022-10-06T19:41:26.225Z,3.85
2022-10-06T19:43:54.298Z,2.53
2022-10-06T19:46:24.630Z,2.20
2022-10-06T19:48:54.811Z,1.70
2022-10-06T19:51:24.097Z,2.03
2022-10-06T19:53:52.399Z,2.08
2022-10-06T19:56:23.382Z,2.20
2022-10-06T19:58:51.874Z,2.47
2022-10-06T20:01:20.344Z,2.05
2022-10-06T20:03:50.283Z,2.22
2022-10-06T20:06:18.430Z,2.47
2022-10-06T20:08:46.437Z,1.80
2022-10-06T20:11:17.395Z,1.65
2022-10-06T20:13:46.270Z,1.70
2022-10-06T20:16:17.199Z,2.10
2022-10-06T20:18:47.277Z,2.35
2022-10-06T20:21:18.454Z,2.20
2022-10-06T20:23:50.088Z,3.17
2022-10-06T20:26:20.349Z,2.13
2022-10-06T20:28:49.356Z,2.30
2022-10-06T20:31:22.431Z,1.98
2022-10-06T20:33:50.754Z,1.45
2022-10-06T20:36:20.919Z,1.63
2022-10-06T20:39:09.609Z,1.90
2022-10-06T20:41:37.438Z,1.52
2022-10-06T20:44:06.155Z,2.97
2022-10-06T20:46:36.616Z,1.98
2022-10-06T20:49:06.051Z,2.15
2022-10-06T20:51:37.378Z,2.08
2022-10-06T20:54:06.857Z,2.47
2022-10-06T20:56:35.926Z,2.30
2022-10-06T20:59:07.036Z,2.03
2022-10-06T21:01:35.763Z,2.78
2022-10-06T21:04:04.930Z,2.65
2022-10-06T21:06:33.615Z,2.78
2022-10-06T21:09:03.344Z,2.92
2022-10-06T21:11:32.053Z,2.80
2022-10-06T21:13:59.905Z,2.25
2022-10-06T21:16:32.009Z,2.70
2022-10-06T21:19:00.584Z,2.47
2022-10-06T21:21:28.507Z,2.60
2022-10-06T21:23:56.248Z,5.15
2022-10-06T21:26:26.757Z,12.30
2022-10-06T21:28:55.525Z,10.32
2022-10-06T21:31:26.199Z,3.50
2022-10-06T21:33:55.396Z,1.77
2022-10-06T21:36:25.200Z,2.17
2022-10-06T21:38:54.829Z,2.08
2022-10-06T21:41:30.382Z,2.20
2022-10-06T21:43:59.872Z,2.20
2022-10-06T21:46:30.179Z,2.75
2022-10-06T21:48:59.811Z,1.63
2022-10-06T21:51:29.167Z,2.13
2022-10-06T21:53:58.115Z,1.70
2022-10-06T21:56:29.135Z,1.73
2022-10-06T21:58:57.794Z,1.67
2022-10-06T22:01:27.388Z,1.70
2022-10-06T22:03:56.584Z,1.40
2022-10-06T22:06:24.813Z,1.35
2022-10-06T22:08:53.980Z,1.48
2022-10-06T22:11:24.612Z,1.70
2022-10-06T22:13:55.805Z,1.67
2022-10-06T22:16:26.095Z,1.70
2022-10-06T22:18:54.196Z,1.73
2022-10-06T22:21:24.660Z,1.42
2022-10-06T22:23:55.361Z,1.83
2022-10-06T22:26:24.776Z,2.25
2022-10-06T22:28:55.643Z,1.65
2022-10-06T22:31:26.200Z,1.55
2022-10-06T22:33:56.341Z,2.58
2022-10-06T22:36:25.246Z,2.72
2022-10-06T22:38:53.656Z,2.33
2022-10-06T22:41:22.238Z,2.40
2022-10-06T22:43:53.132Z,2.50
2022-10-06T22:46:22.329Z,2.60
2022-10-06T22:48:50.232Z,2.80
2022-10-06T22:51:18.448Z,3.05
2022-10-06T22:53:46.164Z,3.05
2022-10-06T22:56:14.382Z,3.28
2022-10-06T22:58:43.681Z,3.13
2022-10-06T23:01:12.439Z,3.20
2022-10-06T23:03:42.199Z,3.20
2022-10-06T23:06:12.772Z,3.40
2022-10-06T23:08:41.281Z,3.63
2022-10-06T23:11:10.906Z,3.28
2022-10-06T23:13:39.047Z,3.40
2022-10-06T23:16:09.286Z,3.55
2022-10-06T23:18:39.250Z,3.88
2022-10-06T23:21:10.265Z,3.50
2022-10-06T23:23:38.477Z,3.60
2022-10-06T23:26:08.189Z,2.95
2022-10-06T23:28:36.171Z,3.08
2022-10-06T23:31:05.520Z,3.30
2022-10-06T23:33:33.677Z,3.97
2022-10-06T23:36:03.353Z,3.55
2022-10-06T23:38:32.467Z,2.72
2022-10-06T23:41:00.193Z,2.72
2022-10-06T23:43:27.925Z,2.45
2022-10-06T23:45:55.801Z,2.70
2022-10-06T23:48:23.734Z,3.10
2022-10-06T23:50:59.404Z,2.20
2022-10-06T23:53:28.221Z,2.35
2022-10-06T23:55:57.711Z,1.90
2022-10-06T23:58:25.729Z,1.98
